createdAt,value
2022-10-11T00:00:18.085Z,100.00
2022-10-11T00:03:06.561Z,100.00
2022-10-11T00:05:54.785Z,100.00
2022-10-11T00:08:44.042Z,100.00
2022-10-11T00:11:32.210Z,100.00
2022-10-11T00:14:20.137Z,100.00
2022-10-11T00:17:08.589Z,100.00
2022-10-11T00:19:56.527Z,100.00
2022-10-11T00:22:44.896Z,100.00
2022-10-11T00:25:34.137Z,100.00
2022-10-11T00:28:22.075Z,100.00
2022-10-11T00:31:12.994Z,100.00
2022-10-11T00:34:00.918Z,100.00
2022-10-11T00:36:48.817Z,100.00
2022-10-11T00:39:36.840Z,100.00
2022-10-11T00:42:26.145Z,100.00
2022-10-11T00:45:59.549Z,100.00
2022-10-11T00:48:51.804Z,100.00
2022-10-11T00:51:46.311Z,100.00
2022-10-11T00:54:37.983Z,100.00
2022-10-11T00:57:30.893Z,100.00
2022-10-11T01:00:20.252Z,100.00
2022-10-11T01:03:08.208Z,100.00
2022-10-11T01:05:56.592Z,100.00
2022-10-11T01:08:45.281Z,100.00
2022-10-11T01:11:43.455Z,100.00
2022-10-11T01:14:55.175Z,100.00
2022-10-11T01:17:51.491Z,100.00
2022-10-11T01:20:51.221Z,100.00
2022-10-11T01:24:08.368Z,100.00
2022-10-11T01:27:30.354Z,100.00
2022-10-11T01:30:24.876Z,100.00
2022-10-11T01:33:25.026Z,100.00
2022-10-11T01:36:22.073Z,100.00
2022-10-11T01:39:15.549Z,100.00
2022-10-11T01:42:06.117Z,100.00
2022-10-11T01:44:56.102Z,100.00
2022-10-11T01:47:46.626Z,100.00
2022-10-11T01:50:40.227Z,100.00
2022-10-11T01:53:59.663Z,100.00
2022-10-11T01:57:02.615Z,100.00
2022-10-11T02:00:03.351Z,100.00
2022-10-11T02:03:14.149Z,100.00
2022-10-11T02:06:09.478Z,100.00
2022-10-11T02:09:08.067Z,100.00
2022-10-11T02:12:00.009Z,100.00
2022-10-11T02:14:51.748Z,100.00
2022-10-11T02:17:45.481Z,100.00
2022-10-11T02:20:35.592Z,100.00
2022-10-11T02:23:27.534Z,100.00
2022-10-11T02:26:15.813Z,100.00
2022-10-11T02:29:06.449Z,100.00
2022-10-11T02:31:56.617Z,100.00
2022-10-11T02:34:48.234Z,100.00
2022-10-11T02:37:44.359Z,100.00
2022-10-11T02:40:35.324Z,100.00
2022-10-11T02:43:30.824Z,100.00
2022-10-11T02:46:19.136Z,100.00
2022-10-11T02:49:09.340Z,100.00
2022-10-11T02:51:57.793Z,100.00
2022-10-11T02:54:47.124Z,100.00
2022-10-11T02:57:35.184Z,100.00
2022-10-11T03:00:23.144Z,100.00
2022-10-11T03:03:11.080Z,100.00
2022-10-11T03:05:59.735Z,100.00
2022-10-11T03:08:47.611Z,100.00
2022-10-11T03:11:36.869Z,100.00
2022-10-11T03:14:25.255Z,100.00
2022-10-11T03:17:34.984Z,100.00
2022-10-11T03:20:21.435Z,100.00
2022-10-11T03:23:09.465Z,100.00
2022-10-11T03:25:57.353Z,100.00
2022-10-11T03:28:46.653Z,100.00
2022-10-11T03:31:34.707Z,100.00
2022-10-11T03:34:22.604Z,100.00
2022-10-11T03:37:10.562Z,100.00
2022-10-11T03:39:58.458Z,100.00
2022-10-11T03:42:46.381Z,100.00
2022-10-11T03:45:35.650Z,100.00
2022-10-11T03:48:23.501Z,100.00
2022-10-11T03:51:13.034Z,100.00
2022-10-11T03:54:00.921Z,100.00
2022-10-11T03:56:48.800Z,100.00
2022-10-11T03:59:36.661Z,100.00
2022-10-11T04:02:25.983Z,100.00
2022-10-11T04:05:13.882Z,100.00
2022-10-11T04:08:01.802Z,100.00
2022-10-11T04:10:49.973Z,100.00
2022-10-11T04:13:37.898Z,100.00
2022-10-11T04:16:25.946Z,100.00
2022-10-11T04:19:15.212Z,100.00
2022-10-11T04:22:03.113Z,100.00
2022-10-11T04:24:51.042Z,100.00
2022-10-11T04:27:38.881Z,100.00
2022-10-11T04:30:26.792Z,100.00
2022-10-11T04:33:14.730Z,100.00
2022-10-11T04:36:04.611Z,100.00
2022-10-11T04:38:52.698Z,100.00
2022-10-11T04:41:40.665Z,100.00
2022-10-11T04:44:28.541Z,100.00
2022-10-11T04:47:16.736Z,100.00
2022-10-11T04:50:05.144Z,100.00
2022-10-11T04:52:54.381Z,100.00
2022-10-11T04:55:42.272Z,100.00
2022-10-11T04:58:31.419Z,100.00
2022-10-11T05:01:19.279Z,100.00
2022-10-11T05:04:07.157Z,100.00
2022-10-11T05:06:55.458Z,100.00
2022-10-11T05:09:44.694Z,100.00
2022-10-11T05:12:32.573Z,100.00
2022-10-11T05:15:20.463Z,100.00
2022-10-11T05:18:08.334Z,100.00
2022-10-11T05:21:01.607Z,100.00
2022-10-11T05:23:51.113Z,100.00
2022-10-11T05:26:40.412Z,100.00
2022-10-11T05:29:28.352Z,100.00
2022-10-11T05:32:16.276Z,100.00
2022-10-11T05:35:04.320Z,100.00
2022-10-11T05:37:52.236Z,100.00
2022-10-11T05:40:40.960Z,100.00
2022-10-11T05:43:30.555Z,100.00
2022-10-11T05:46:18.492Z,100.00
2022-10-11T05:49:06.394Z,100.00
2022-10-11T05:51:54.303Z,100.00
2022-10-11T05:54:42.174Z,100.00
2022-10-11T05:57:30.103Z,100.00
2022-10-11T06:00:19.594Z,100.00
2022-10-11T06:03:09.252Z,100.00
2022-10-11T06:05:57.472Z,100.00
2022-10-11T06:08:46.056Z,100.00
2022-10-11T06:11:34.804Z,100.00
2022-10-11T06:14:15.889Z,100.00
2022-10-11T06:16:44.839Z,100.00
2022-10-11T06:19:12.494Z,100.00
2022-10-11T06:21:40.143Z,100.00
2022-10-11T06:24:09.244Z,100.00
2022-10-11T06:26:36.881Z,100.00
2022-10-11T06:29:04.837Z,100.00
2022-10-11T06:31:32.820Z,100.00
2022-10-11T06:34:01.756Z,100.00
2022-10-11T06:36:29.821Z,100.00
2022-10-11T06:38:57.419Z,100.00
2022-10-11T06:41:27.559Z,100.00
2022-10-11T06:43:55.628Z,100.00
2022-10-11T06:46:25.720Z,100.00
2022-10-11T06:48:53.870Z,100.00
2022-10-11T06:51:23.856Z,100.00
2022-10-11T06:53:52.592Z,100.00
2022-10-11T06:56:20.560Z,100.00
2022-10-11T06:58:48.474Z,100.00
2022-10-11T07:01:18.965Z,100.00
2022-10-11T07:03:47.141Z,100.00
2022-10-11T07:06:17.871Z,100.00
2022-10-11T07:08:46.962Z,100.00
2022-10-11T07:11:17.022Z,100.00
2022-10-11T07:13:49.679Z,100.00
2022-10-11T07:16:17.933Z,100.00
2022-10-11T07:18:46.111Z,100.00
2022-10-11T07:21:16.842Z,100.00
2022-10-11T07:23:44.519Z,100.00
2022-10-11T07:26:13.742Z,100.00
2022-10-11T07:28:43.944Z,100.00
2022-10-11T07:31:15.506Z,100.00
2022-10-11T07:33:43.558Z,100.00
2022-10-11T07:36:12.740Z,100.00
2022-10-11T07:38:41.430Z,100.00
2022-10-11T07:41:10.261Z,100.00
2022-10-11T07:43:39.802Z,100.00
2022-10-11T07:46:08.527Z,100.00
2022-10-11T07:48:37.714Z,100.00
2022-10-11T07:51:07.271Z,100.00
2022-10-11T07:53:39.727Z,100.00
2022-10-11T07:56:08.735Z,100.00
2022-10-11T07:58:36.800Z,100.00
2022-10-11T08:01:06.305Z,100.00
2022-10-11T08:03:34.458Z,100.00
2022-10-11T08:06:03.269Z,100.00
2022-10-11T08:08:31.332Z,100.00
2022-10-11T08:10:59.351Z,100.00
2022-10-11T08:13:27.453Z,100.00
2022-10-11T08:15:55.190Z,100.00
2022-10-11T08:18:24.313Z,100.00
2022-10-11T08:20:52.212Z,100.00
2022-10-11T08:23:20.706Z,100.00
2022-10-11T08:25:48.775Z,100.00
2022-10-11T08:28:17.676Z,100.00
2022-10-11T08:30:49.877Z,100.00
2022-10-11T08:33:17.852Z,100.00
2022-10-11T08:35:47.341Z,100.00
2022-10-11T08:38:15.240Z,100.00
2022-10-11T08:40:47.637Z,100.00
2022-10-11T08:43:28.914Z,100.00
2022-10-11T08:46:00.957Z,100.00
2022-10-11T08:48:35.482Z,100.00
2022-10-11T08:51:09.973Z,100.00
2022-10-11T08:53:46.809Z,100.00
2022-10-11T08:56:15.953Z,100.00
2022-10-11T08:58:49.082Z,100.00
2022-10-11T09:01:20.885Z,100.00
2022-10-11T09:03:50.137Z,100.00
2022-10-11T09:06:43.696Z,100.00
2022-10-11T09:09:29.100Z,100.00
2022-10-11T09:12:11.478Z,100.00
2022-10-11T09:15:04.538Z,100.00
2022-10-11T09:17:45.849Z,100.00
2022-10-11T09:20:28.120Z,100.00
2022-10-11T09:23:02.416Z,100.00
2022-10-11T09:25:34.400Z,100.00
2022-10-11T09:28:13.189Z,100.00
2022-10-11T09:30:47.477Z,100.00
2022-10-11T09:33:20.724Z,100.00
2022-10-11T09:35:50.114Z,100.00
2022-10-11T09:38:38.250Z,100.00
2022-10-11T09:41:15.662Z,100.00
2022-10-11T09:43:48.424Z,100.00
2022-10-11T09:46:23.859Z,100.00
2022-10-11T09:48:54.430Z,100.00
2022-10-11T09:51:25.030Z,100.00
2022-10-11T09:53:59.373Z,100.00
2022-10-11T09:56:29.937Z,100.00
2022-10-11T09:59:25.967Z,100.00
2022-10-11T10:02:19.614Z,100.00
2022-10-11T10:05:00.952Z,100.00
2022-10-11T10:07:29.982Z,100.00
2022-10-11T10:09:59.695Z,100.00
2022-10-11T10:12:29.716Z,100.00
2022-10-11T10:15:06.033Z,100.00
2022-10-11T10:17:34.026Z,100.00
2022-10-11T10:20:05.309Z,100.00
2022-10-11T10:22:36.037Z,100.00
2022-10-11T10:25:09.239Z,100.00
2022-10-11T10:27:37.141Z,100.00
2022-10-11T10:30:22.933Z,100.00
2022-10-11T10:32:56.552Z,100.00
2022-10-11T10:35:38.323Z,100.00
2022-10-11T10:38:20.721Z,100.00
2022-10-11T10:40:53.971Z,100.00
2022-10-11T10:43:24.873Z,100.00
2022-10-11T10:46:22.814Z,100.00
2022-10-11T10:51:52.637Z,98.15
2022-10-11T10:54:32.989Z,98.10
2022-10-11T10:57:05.510Z,94.29
2022-10-11T10:59:45.513Z,94.69
2022-10-11T11:02:40.880Z,100.00
2022-10-11T11:05:18.737Z,96.46
2022-10-11T11:07:50.872Z,91.47
2022-10-11T11:10:22.651Z,100.00
2022-10-11T11:13:02.399Z,98.28
2022-10-11T11:15:38.286Z,90.52
2022-10-11T11:18:25.774Z,97.35
2022-10-11T11:21:10.092Z,90.05
2022-10-11T11:23:45.184Z,100.00
2022-10-11T11:26:23.470Z,98.98
2022-10-11T11:29:03.470Z,90.88
2022-10-11T11:31:55.919Z,91.82
2022-10-11T11:34:27.349Z,100.00
2022-10-11T11:36:59.041Z,96.57
2022-10-11T11:39:31.107Z,91.45
2022-10-11T11:42:05.074Z,93.95
2022-10-11T11:44:37.600Z,97.75
2022-10-11T11:47:11.998Z,90.39
2022-10-11T11:52:24.048Z,96.68
2022-10-11T11:55:03.814Z,96.02
2022-10-11T11:57:45.738Z,91.63
2022-10-11T12:00:18.817Z,93.46
2022-10-11T12:02:52.253Z,92.38
2022-10-11T12:05:22.269Z,87.98
2022-10-11T12:07:55.051Z,84.71
2022-10-11T12:10:34.173Z,88.84
2022-10-11T12:13:21.233Z,85.20
2022-10-11T12:16:10.792Z,86.08
2022-10-11T12:18:51.862Z,88.81
2022-10-11T12:21:25.790Z,84.99
2022-10-11T12:23:54.730Z,83.90
2022-10-11T12:26:44.243Z,88.67
2022-10-11T12:29:42.469Z,89.76
2022-10-11T12:32:50.958Z,85.36
2022-10-11T12:36:05.565Z,82.23
2022-10-11T12:38:39.896Z,84.60
2022-10-11T12:41:49.011Z,84.70
2022-10-11T12:44:23.403Z,79.22
2022-10-11T12:47:23.927Z,81.53
2022-10-11T12:50:03.589Z,81.35
2022-10-11T12:52:40.785Z,81.02
2022-10-11T12:55:34.161Z,73.64
2022-10-11T12:58:26.041Z,77.97
2022-10-11T13:01:22.786Z,78.54
2022-10-11T13:04:03.966Z,69.90
2022-10-11T13:06:34.793Z,75.30
2022-10-11T13:09:06.431Z,77.71
2022-10-11T13:11:40.078Z,79.40
2022-10-11T13:14:11.600Z,79.06
2022-10-11T13:16:56.664Z,84.40
2022-10-11T13:19:24.738Z,88.58
2022-10-11T13:22:17.212Z,83.04
2022-10-11T13:24:44.883Z,85.45
2022-10-11T13:27:19.644Z,86.28
2022-10-11T13:29:48.751Z,84.67
2022-10-11T13:32:20.581Z,86.08
2022-10-11T13:34:50.950Z,82.78
2022-10-11T13:37:22.200Z,83.55
2022-10-11T13:39:52.907Z,83.51
2022-10-11T13:42:26.421Z,78.13
2022-10-11T13:44:54.150Z,84.25
2022-10-11T13:47:26.906Z,82.79
2022-10-11T13:50:04.701Z,79.18
2022-10-11T13:52:33.383Z,80.16
2022-10-11T13:55:22.808Z,80.07
2022-10-11T13:57:52.749Z,79.76
2022-10-11T14:00:30.044Z,81.40
2022-10-11T14:03:01.596Z,84.62
2022-10-11T14:05:35.310Z,82.73
2022-10-11T14:08:06.258Z,81.73
2022-10-11T14:10:34.935Z,81.97
2022-10-11T14:13:23.697Z,84.44
2022-10-11T14:16:29.331Z,82.61
2022-10-11T14:19:10.303Z,85.73
2022-10-11T14:21:51.159Z,83.97
2022-10-11T14:24:19.565Z,87.92
2022-10-11T14:26:49.929Z,87.29
2022-10-11T14:29:24.665Z,86.98
2022-10-11T14:31:56.233Z,90.99
2022-10-11T14:34:26.579Z,91.63
2022-10-11T14:36:54.595Z,93.79
2022-10-11T14:39:24.395Z,93.54
2022-10-11T14:41:53.047Z,97.29
2022-10-11T14:44:23.529Z,93.17
2022-10-11T14:46:54.551Z,92.13
2022-10-11T14:49:24.960Z,94.27
2022-10-11T14:51:54.762Z,92.58
2022-10-11T14:54:24.888Z,91.41
2022-10-11T14:56:54.633Z,94.54
2022-10-11T14:59:26.605Z,93.55
2022-10-11T15:01:54.694Z,90.74
2022-10-11T15:04:24.571Z,91.96
2022-10-11T15:06:53.500Z,93.34
2022-10-11T15:09:21.550Z,96.90
2022-10-11T15:11:50.061Z,98.79
2022-10-11T15:14:18.024Z,97.94
2022-10-11T15:16:47.149Z,100.00
2022-10-11T15:19:16.589Z,100.00
2022-10-11T15:21:45.100Z,100.00
2022-10-11T15:24:13.190Z,100.00
2022-10-11T15:26:41.175Z,100.00
2022-10-11T15:29:11.741Z,100.00
2022-10-11T15:31:39.426Z,100.00
2022-10-11T15:34:08.415Z,100.00
2022-10-11T15:36:36.050Z,100.00
2022-10-11T15:39:03.967Z,100.00
2022-10-11T15:41:31.574Z,100.00
2022-10-11T15:43:59.163Z,100.00
2022-10-11T15:46:26.781Z,100.00
2022-10-11T15:48:54.528Z,100.00
2022-10-11T15:51:23.477Z,100.00
2022-10-11T15:53:51.041Z,100.00
2022-10-11T15:56:19.585Z,100.00
2022-10-11T15:58:47.652Z,100.00
2022-10-11T16:01:18.655Z,100.00
2022-10-11T16:03:47.380Z,100.00
2022-10-11T16:06:15.524Z,100.00
2022-10-11T16:08:44.789Z,100.00
2022-10-11T16:11:13.965Z,100.00
2022-10-11T16:13:41.982Z,100.00
2022-10-11T16:16:11.937Z,100.00
2022-10-11T16:18:39.723Z,100.00
2022-10-11T16:21:10.130Z,100.00
2022-10-11T16:23:38.247Z,100.00
2022-10-11T16:26:09.852Z,100.00
2022-10-11T16:28:38.673Z,100.00
2022-10-11T16:31:10.664Z,100.00
2022-10-11T16:33:45.415Z,100.00
2022-10-11T16:36:31.711Z,100.00
2022-10-11T16:39:00.097Z,100.00
2022-10-11T16:41:29.006Z,100.00
2022-10-11T16:43:57.142Z,100.00
2022-10-11T16:46:25.101Z,100.00
2022-10-11T16:48:55.277Z,100.00
2022-10-11T16:51:23.978Z,100.00
2022-10-11T16:53:52.134Z,100.00
2022-10-11T16:56:22.400Z,100.00
2022-10-11T16:58:52.297Z,100.00
2022-10-11T17:01:20.140Z,100.00
2022-10-11T17:03:49.431Z,100.00
2022-10-11T17:06:17.171Z,100.00
2022-10-11T17:08:44.782Z,100.00
2022-10-11T17:11:12.676Z,100.00
2022-10-11T17:13:40.322Z,100.00
2022-10-11T17:16:09.696Z,100.00
2022-10-11T17:18:37.704Z,100.00
2022-10-11T17:21:08.411Z,100.00
2022-10-11T17:23:36.853Z,100.00
2022-10-11T17:26:10.994Z,100.00
2022-10-11T17:28:39.282Z,100.00
2022-10-11T17:31:07.493Z,100.00
2022-10-11T17:33:36.827Z,100.00
2022-10-11T17:36:14.268Z,100.00
2022-10-11T17:38:42.002Z,100.00
2022-10-11T17:41:09.786Z,100.00
2022-10-11T17:43:38.366Z,100.00
2022-10-11T17:46:07.282Z,100.00
2022-10-11T17:48:39.120Z,100.00
2022-10-11T17:51:09.126Z,100.00
2022-10-11T17:53:38.017Z,100.00
2022-10-11T17:56:07.629Z,100.00
2022-10-11T17:58:35.773Z,100.00
2022-10-11T18:01:06.162Z,100.00
2022-10-11T18:03:34.244Z,100.00
2022-10-11T18:06:05.539Z,100.00
2022-10-11T18:08:39.769Z,100.00
2022-10-11T18:11:11.566Z,100.00
2022-10-11T18:13:42.364Z,100.00
2022-10-11T18:16:11.134Z,100.00
2022-10-11T18:18:39.610Z,100.00
2022-10-11T18:21:08.745Z,100.00
2022-10-11T18:23:38.231Z,100.00
2022-10-11T18:26:10.855Z,100.00
2022-10-11T18:28:38.626Z,100.00
2022-10-11T18:31:12.627Z,100.00
2022-10-11T18:33:41.938Z,100.00
2022-10-11T18:36:13.488Z,100.00
2022-10-11T18:38:46.142Z,100.00
2022-10-11T18:41:16.446Z,100.00
2022-10-11T18:43:48.752Z,100.00
2022-10-11T18:46:16.563Z,100.00
2022-10-11T18:48:46.296Z,100.00
2022-10-11T18:51:18.289Z,100.00
2022-10-11T18:53:46.695Z,100.00
2022-10-11T18:56:16.152Z,100.00
2022-10-11T18:58:45.029Z,100.00
2022-10-11T19:01:16.386Z,100.00
2022-10-11T19:03:44.657Z,100.00
2022-10-11T19:06:17.718Z,100.00
2022-10-11T19:08:45.651Z,100.00
2022-10-11T19:11:13.969Z,100.00
2022-10-11T19:13:41.605Z,100.00
2022-10-11T19:16:12.031Z,100.00
2022-10-11T19:18:44.033Z,100.00
2022-10-11T19:21:14.418Z,100.00
2022-10-11T19:23:45.079Z,100.00
2022-10-11T19:26:14.794Z,100.00
2022-10-11T19:28:43.240Z,100.00
2022-10-11T19:31:14.291Z,100.00
2022-10-11T19:33:41.883Z,100.00
2022-10-11T19:36:12.765Z,100.00
2022-10-11T19:38:40.945Z,100.00
2022-10-11T19:41:09.970Z,100.00
2022-10-11T19:43:37.645Z,100.00
2022-10-11T19:46:07.081Z,100.00
2022-10-11T19:48:37.595Z,100.00
2022-10-11T19:51:07.975Z,100.00
2022-10-11T19:53:36.330Z,100.00
2022-10-11T19:56:05.284Z,100.00
2022-10-11T19:58:34.373Z,100.00
2022-10-11T20:01:03.836Z,100.00
2022-10-11T20:03:53.845Z,100.00
2022-10-11T20:06:42.754Z,100.00
2022-10-11T20:09:31.190Z,100.00
2022-10-11T20:12:19.289Z,100.00
2022-10-11T20:15:09.431Z,100.00
2022-10-11T20:17:57.651Z,100.00
2022-10-11T20:20:52.796Z,100.00
2022-10-11T20:26:35.435Z,100.00
2022-10-11T20:29:25.149Z,100.00
2022-10-11T20:32:14.367Z,100.00
2022-10-11T20:35:03.284Z,100.00
2022-10-11T20:37:53.501Z,100.00
2022-10-11T20:40:41.514Z,100.00
2022-10-11T20:43:29.386Z,100.00
2022-10-11T20:46:18.992Z,100.00
2022-10-11T20:49:09.698Z,100.00
2022-10-11T20:51:57.623Z,100.00
2022-10-11T20:54:45.609Z,100.00
2022-10-11T20:57:33.730Z,100.00
2022-10-11T21:00:22.991Z,100.00
2022-10-11T21:03:11.347Z,100.00
2022-10-11T21:06:00.989Z,100.00
2022-10-11T21:08:48.963Z,100.00
2022-10-11T21:11:36.869Z,100.00
2022-10-11T21:14:24.801Z,100.00
2022-10-11T21:17:12.705Z,100.00
2022-10-11T21:20:03.478Z,100.00
2022-10-11T21:22:52.785Z,100.00
2022-10-11T21:25:41.255Z,100.00
2022-10-11T21:28:29.563Z,100.00
2022-10-11T21:31:19.704Z,100.00
2022-10-11T21:34:07.753Z,100.00
2022-10-11T21:36:55.692Z,100.00
2022-10-11T21:39:45.075Z,100.00
2022-10-11T21:42:33.026Z,100.00
2022-10-11T21:45:20.921Z,100.00
2022-10-11T21:48:08.954Z,100.00
2022-10-11T21:50:56.903Z,100.00
2022-10-11T21:53:44.828Z,100.00
2022-10-11T21:56:34.093Z,100.00
2022-10-11T21:59:21.985Z,100.00
2022-10-11T22:02:09.983Z,100.00
2022-10-11T22:04:57.901Z,100.00
2022-10-11T22:07:46.383Z,100.00
2022-10-11T22:10:35.037Z,100.00
2022-10-11T22:13:24.772Z,100.00
2022-10-11T22:16:14.447Z,100.00
2022-10-11T22:19:02.399Z,100.00
2022-10-11T22:21:50.377Z,100.00
2022-10-11T22:24:38.275Z,100.00
2022-10-11T22:27:26.265Z,100.00
2022-10-11T22:30:15.518Z,100.00
2022-10-11T22:33:03.643Z,100.00
2022-10-11T22:35:54.711Z,100.00
2022-10-11T22:38:43.732Z,100.00
2022-10-11T22:41:31.596Z,100.00
2022-10-11T22:44:19.479Z,100.00
2022-10-11T22:47:08.723Z,100.00
2022-10-11T22:49:56.621Z,100.00
2022-10-11T22:52:44.508Z,100.00
2022-10-11T22:55:32.511Z,100.00
2022-10-11T22:58:20.431Z,100.00
2022-10-11T23:01:09.290Z,100.00
2022-10-11T23:03:58.771Z,100.00
2022-10-11T23:06:46.739Z,100.00
2022-10-11T23:09:34.676Z,100.00
2022-10-11T23:12:22.592Z,100.00
2022-10-11T23:15:11.445Z,100.00
2022-10-11T23:17:59.343Z,100.00
2022-10-11T23:20:48.588Z,100.00
2022-10-11T23:23:36.968Z,100.00
2022-10-11T23:26:24.870Z,100.00
2022-10-11T23:29:12.745Z,100.00
2022-10-11T23:32:00.662Z,100.00
2022-10-11T23:34:48.520Z,100.00
2022-10-11T23:37:38.188Z,100.00
2022-10-11T23:40:26.384Z,100.00
2022-10-11T23:43:14.251Z,100.00
2022-10-11T23:46:02.169Z,100.00
2022-10-11T23:48:50.101Z,100.00
2022-10-11T23:51:38.260Z,100.00
2022-10-11T23:54:27.494Z,100.00
2022-10-11T23:57:15.410Z,100.00
